Time;durP1;ratioP1;P1;durP2;ratioP2;P2;SDS_P1;SDS_P2;PMS_P1;PMS_P2;Temp;Humidity;BMP_temperature;BMP_pressure;BME280_temperature;BME280_humidity;BME280_pressure;Samples;Min_cycle;Max_cycle;Signal;HPM_P1;HPM_P2
2023/05/10 00:01:56;;;;;;;19.10;9.52;;;13.10;99.90;;;;;;5021049;28;20481;-77
2023/05/10 00:04:22;;;;;;;15.30;9.63;;;13.00;99.90;;;;;;5028987;28;20046;-76
2023/05/10 00:06:47;;;;;;;19.75;10.45;;;13.20;99.90;;;;;;5016945;28;20042;-75
2023/05/10 00:09:13;;;;;;;14.25;8.38;;;13.10;99.90;;;;;;5025585;28;20068;-73
2023/05/10 00:11:39;;;;;;;14.40;7.45;;;12.90;99.90;;;;;;5028343;28;20034;-72
2023/05/10 00:14:04;;;;;;;11.25;6.68;;;12.90;99.90;;;;;;5019122;28;20402;-76
2023/05/10 00:16:30;;;;;;;11.00;6.70;;;12.70;99.90;;;;;;5009505;28;20175;-75
2023/05/10 00:18:56;;;;;;;11.90;6.40;;;12.80;99.90;;;;;;5009014;28;20026;-76
2023/05/10 00:21:21;;;;;;;12.15;6.68;;;12.80;99.90;;;;;;5010386;28;20046;-76
2023/05/10 00:23:47;;;;;;;17.35;7.65;;;12.80;99.90;;;;;;5001185;28;20120;-75
2023/05/10 00:26:12;;;;;;;12.88;7.97;;;12.60;99.90;;;;;;5017358;28;20482;-73
2023/05/10 00:28:38;;;;;;;12.73;7.70;;;12.50;99.90;;;;;;5010176;28;20445;-71
2023/05/10 00:31:03;;;;;;;15.35;8.13;;;12.60;99.90;;;;;;5018864;28;20072;-76
2023/05/10 00:33:29;;;;;;;12.18;7.78;;;12.60;99.90;;;;;;5013903;28;20799;-75
2023/05/10 00:35:55;;;;;;;15.25;9.00;;;12.70;99.90;;;;;;4997634;28;20398;-77
2023/05/10 00:38:20;;;;;;;22.40;11.50;;;12.50;99.90;;;;;;5024659;28;20401;-72
2023/05/10 00:40:46;;;;;;;18.98;10.50;;;12.50;99.90;;;;;;5021725;28;20292;-76
2023/05/10 00:43:12;;;;;;;22.08;11.05;;;12.50;99.90;;;;;;5023782;28;20486;-75
2023/05/10 00:45:40;;;;;;;18.90;10.48;;;12.40;99.90;;;;;;5017118;28;20034;-76
2023/05/10 00:48:06;;;;;;;20.80;11.18;;;12.50;99.90;;;;;;5010982;28;20034;-73
2023/05/10 00:50:33;;;;;;;18.95;10.73;;;12.50;99.90;;;;;;5014089;28;20044;-76
2023/05/10 00:53:00;;;;;;;19.65;9.55;;;12.40;99.90;;;;;;5013366;28;20045;-75
2023/05/10 00:55:25;;;;;;;17.33;9.80;;;12.50;99.90;;;;;;5024651;28;20037;-76
2023/05/10 00:57:52;;;;;;;18.23;9.82;;;12.40;99.90;;;;;;5017811;28;20041;-73
2023/05/10 01:00:18;;;;;;;16.90;9.85;;;12.30;99.90;;;;;;5011965;28;20056;-72
2023/05/10 01:02:47;;;;;;;19.70;10.00;;;12.30;99.90;;;;;;5011793;28;20045;-76
2023/05/10 01:05:13;;;;;;;17.05;9.45;;;12.50;99.90;;;;;;5013453;28;20077;-72
2023/05/10 01:07:39;;;;;;;17.20;9.25;;;12.40;99.90;;;;;;5014704;28;20515;-76
2023/05/10 01:10:06;;;;;;;16.08;9.02;;;12.40;99.90;;;;;;5014389;28;20132;-72
2023/05/10 01:12:36;;;;;;;20.95;10.20;;;12.30;99.90;;;;;;5018960;28;20485;-74
2023/05/10 01:15:03;;;;;;;15.25;8.88;;;12.30;99.90;;;;;;5005820;28;20697;-76
2023/05/10 01:17:29;;;;;;;17.17;9.23;;;12.50;99.90;;;;;;5010579;28;20053;-73
2023/05/10 01:19:55;;;;;;;18.73;9.13;;;12.50;99.90;;;;;;5008786;28;20091;-74
2023/05/10 01:22:45;;;;;;;17.92;8.60;;;12.30;99.90;;;;;;5015457;28;20038;-76
2023/05/10 01:25:19;;;;;;;16.47;8.90;;;12.30;99.90;;;;;;5010885;28;20104;-75
2023/05/10 01:28:06;;;;;;;27.55;10.13;;;12.40;99.90;;;;;;4996618;28;20045;-76
2023/05/10 01:30:51;;;;;;;19.70;9.18;;;12.30;99.90;;;;;;5010300;28;20402;-75
2023/05/10 01:33:33;;;;;;;21.73;9.30;;;12.20;99.90;;;;;;5009935;28;20034;-76
2023/05/10 01:36:12;;;;;;;17.38;8.85;;;12.30;99.90;;;;;;5011829;28;20180;-76
2023/05/10 01:38:46;;;;;;;18.27;9.57;;;12.40;99.90;;;;;;5015391;28;20049;-71
2023/05/10 01:41:33;;;;;;;18.35;9.30;;;12.20;99.90;;;;;;5015994;28;20092;-76
2023/05/10 01:44:24;;;;;;;15.55;8.88;;;12.40;99.90;;;;;;5019126;28;20045;-76
2023/05/10 01:46:57;;;;;;;15.25;8.50;;;12.30;99.90;;;;;;5012355;28;20255;-76
2023/05/10 01:49:28;;;;;;;17.50;9.40;;;12.20;99.90;;;;;;5023523;28;20501;-76
2023/05/10 01:52:00;;;;;;;20.33;9.45;;;12.20;99.90;;;;;;5016000;28;20120;-76
2023/05/10 01:54:28;;;;;;;21.95;10.23;;;12.30;99.90;;;;;;5021348;28;20048;-76
2023/05/10 01:57:03;;;;;;;18.25;9.25;;;12.20;99.90;;;;;;5000308;28;20042;-76
2023/05/10 01:59:40;;;;;;;19.58;9.77;;;12.20;99.90;;;;;;5021995;28;20037;-76
2023/05/10 02:02:07;;;;;;;18.77;8.95;;;12.40;99.90;;;;;;5017616;28;20048;-77
2023/05/10 02:04:35;;;;;;;23.80;10.00;;;12.10;99.90;;;;;;5019576;28;20042;-75
2023/05/10 02:07:01;;;;;;;21.75;10.18;;;12.20;99.90;;;;;;5010870;28;20046;-75
2023/05/10 02:09:29;;;;;;;26.00;10.63;;;12.30;99.90;;;;;;5015001;28;22805;-76
2023/05/10 02:11:57;;;;;;;19.95;9.48;;;12.10;99.90;;;;;;5011140;28;20033;-74
2023/05/10 02:14:24;;;;;;;18.08;9.40;;;12.10;99.90;;;;;;5013312;28;20068;-76
2023/05/10 02:16:53;;;;;;;22.13;9.77;;;12.20;99.90;;;;;;5010292;28;21135;-76
2023/05/10 02:19:20;;;;;;;20.55;9.40;;;12.30;99.90;;;;;;5014977;28;20045;-76
2023/05/10 02:21:47;;;;;;;21.90;9.18;;;12.10;99.90;;;;;;5010346;28;20120;-76
2023/05/10 02:24:15;;;;;;;18.08;9.35;;;12.20;99.90;;;;;;5002949;28;20034;-75
2023/05/10 02:26:42;;;;;;;17.15;8.57;;;12.20;99.90;;;;;;5020828;28;20050;-74
2023/05/10 02:29:09;;;;;;;22.45;9.20;;;12.20;99.90;;;;;;5015873;28;20056;-74
2023/05/10 02:31:35;;;;;;;19.58;9.55;;;12.20;99.90;;;;;;5017288;28;20149;-76
2023/05/10 02:34:02;;;;;;;19.92;9.45;;;12.30;99.90;;;;;;5021237;28;20564;-75
2023/05/10 02:36:28;;;;;;;24.38;10.27;;;12.10;99.90;;;;;;5025710;28;20033;-75
2023/05/10 02:38:55;;;;;;;18.38;9.02;;;12.30;99.90;;;;;;5019108;28;20457;-75
2023/05/10 02:41:22;;;;;;;22.27;9.73;;;12.20;99.90;;;;;;5005331;28;20049;-75
2023/05/10 02:43:51;;;;;;;20.17;9.50;;;12.20;99.90;;;;;;5011280;28;20042;-76
2023/05/10 02:46:17;;;;;;;17.77;9.45;;;12.10;99.90;;;;;;5005989;28;20375;-75
2023/05/10 02:48:43;;;;;;;22.33;9.55;;;12.30;99.90;;;;;;5007979;28;20049;-71
2023/05/10 02:51:12;;;;;;;18.40;10.02;;;12.30;99.90;;;;;;5007209;28;20071;-72
2023/05/10 02:53:40;;;;;;;20.77;9.65;;;12.10;99.90;;;;;;4993434;28;20037;-75
2023/05/10 02:56:28;;;;;;;22.75;9.95;;;12.10;99.90;;;;;;5011304;28;20041;-76
2023/05/10 02:58:55;;;;;;;21.10;9.45;;;12.20;99.90;;;;;;5007607;28;20054;-75
2023/05/10 03:01:20;;;;;;;22.20;9.95;;;12.30;99.90;;;;;;5009865;28;20033;-76
2023/05/10 03:03:46;;;;;;;18.48;8.85;;;12.20;99.90;;;;;;5014026;28;20045;-75
2023/05/10 03:06:11;;;;;;;23.70;10.57;;;12.20;99.90;;;;;;5007350;28;20054;-76
2023/05/10 03:08:37;;;;;;;18.60;9.38;;;12.00;99.90;;;;;;5010794;28;20424;-76
2023/05/10 03:11:25;;;;;;;24.90;10.27;;;12.20;99.90;;;;;;5016592;28;20137;-76
2023/05/10 03:13:56;;;;;;;21.70;9.75;;;12.20;99.90;;;;;;5007099;28;20048;-75
2023/05/10 03:16:31;;;;;;;20.58;10.10;;;12.10;99.90;;;;;;5010395;28;20042;-75
2023/05/10 03:19:13;;;;;;;25.30;10.90;;;12.20;99.90;;;;;;5008703;28;20080;-76
2023/05/10 03:21:44;;;;;;;25.58;10.40;;;12.20;99.90;;;;;;5003862;28;20034;-75
2023/05/10 03:24:12;;;;;;;23.48;10.60;;;12.30;99.90;;;;;;5002293;28;20050;-76
2023/05/10 03:26:39;;;;;;;20.30;10.23;;;12.30;99.90;;;;;;4991964;28;20057;-76
2023/05/10 03:29:07;;;;;;;23.88;10.38;;;12.30;99.90;;;;;;5008870;28;20053;-74
2023/05/10 03:31:33;;;;;;;20.75;10.30;;;12.30;99.90;;;;;;5007362;28;20626;-74
2023/05/10 03:33:59;;;;;;;25.60;10.90;;;12.10;99.90;;;;;;5007570;28;20501;-76
2023/05/10 03:36:24;;;;;;;21.08;10.05;;;12.10;99.90;;;;;;5013954;28;20444;-72
2023/05/10 03:38:50;;;;;;;23.00;10.60;;;12.10;99.90;;;;;;5019601;28;20042;-76
2023/05/10 03:41:16;;;;;;;23.02;10.93;;;12.30;99.90;;;;;;5002053;28;20406;-75
2023/05/10 03:43:41;;;;;;;18.85;9.82;;;12.20;99.90;;;;;;4996699;28;20489;-75
2023/05/10 03:46:07;;;;;;;27.45;12.18;;;12.10;99.90;;;;;;5018278;28;20048;-76
2023/05/10 03:48:33;;;;;;;19.02;10.27;;;12.30;99.90;;;;;;5008404;28;20034;-77
2023/05/10 03:50:58;;;;;;;22.63;10.25;;;12.10;99.90;;;;;;5019621;28;20041;-77
2023/05/10 03:53:26;;;;;;;23.98;10.93;;;12.20;99.90;;;;;;5021245;28;20041;-77
2023/05/10 03:55:52;;;;;;;28.80;11.88;;;12.10;99.90;;;;;;5006017;28;20129;-72
2023/05/10 03:58:18;;;;;;;23.48;11.52;;;12.10;99.90;;;;;;5012025;28;20120;-73
2023/05/10 04:00:45;;;;;;;33.70;11.52;;;12.10;99.90;;;;;;5012917;28;20064;-76
2023/05/10 04:03:11;;;;;;;22.95;10.75;;;12.20;99.90;;;;;;5015105;28;20037;-72
2023/05/10 04:05:37;;;;;;;22.80;10.85;;;12.00;99.90;;;;;;5019454;28;20030;-77
2023/05/10 04:08:03;;;;;;;22.58;11.00;;;12.00;99.90;;;;;;5011326;28;20044;-74
2023/05/10 04:10:28;;;;;;;23.48;10.70;;;12.00;99.90;;;;;;5023755;28;20036;-76
2023/05/10 04:12:54;;;;;;;25.65;11.27;;;12.00;99.90;;;;;;5020822;28;22702;-75
2023/05/10 04:15:20;;;;;;;20.38;10.13;;;12.10;99.90;;;;;;5022788;28;20096;-77
2023/05/10 04:17:46;;;;;;;26.55;11.10;;;12.10;99.90;;;;;;5029158;28;20999;-77
2023/05/10 04:20:12;;;;;;;21.33;10.13;;;12.20;99.90;;;;;;5025291;28;20436;-72
2023/05/10 04:22:37;;;;;;;22.15;10.40;;;12.10;99.90;;;;;;5030768;28;20069;-74
2023/05/10 04:25:04;;;;;;;19.40;10.10;;;12.10;99.90;;;;;;5026894;28;20409;-74
2023/05/10 04:27:29;;;;;;;19.10;9.43;;;11.90;99.90;;;;;;5030249;28;20041;-74
2023/05/10 04:29:55;;;;;;;21.35;10.02;;;12.10;99.90;;;;;;5003374;28;20040;-74
2023/05/10 04:32:20;;;;;;;17.20;9.38;;;12.00;99.90;;;;;;5021895;28;20041;-76
2023/05/10 04:34:47;;;;;;;15.82;9.02;;;12.00;99.90;;;;;;5016863;28;20382;-75
2023/05/10 04:37:12;;;;;;;15.05;8.70;;;12.10;99.90;;;;;;5030971;28;20081;-76
2023/05/10 04:39:38;;;;;;;16.95;9.25;;;12.00;99.90;;;;;;5028433;28;20076;-72
2023/05/10 04:42:05;;;;;;;15.68;8.75;;;12.10;99.90;;;;;;5012261;28;20104;-73
2023/05/10 04:44:32;;;;;;;18.25;8.48;;;12.10;99.90;;;;;;5017301;28;20136;-72
2023/05/10 04:46:58;;;;;;;14.15;8.13;;;12.10;99.90;;;;;;5028110;28;20379;-74
2023/05/10 04:49:23;;;;;;;14.45;7.75;;;11.90;99.90;;;;;;5022826;28;20072;-72
2023/05/10 04:51:49;;;;;;;17.10;8.23;;;12.00;99.90;;;;;;5044436;28;20127;-73
2023/05/10 04:54:15;;;;;;;14.18;8.07;;;12.00;99.90;;;;;;5013148;28;20041;-75
2023/05/10 04:56:40;;;;;;;11.13;6.88;;;11.90;99.90;;;;;;5008526;28;20100;-72
2023/05/10 04:59:06;;;;;;;16.30;7.15;;;12.00;99.90;;;;;;5028740;28;20048;-75
2023/05/10 05:01:32;;;;;;;13.65;7.50;;;12.00;99.90;;;;;;5016130;28;20374;-74
2023/05/10 05:03:58;;;;;;;19.58;8.40;;;11.90;99.90;;;;;;5011526;28;20045;-73
2023/05/10 05:06:24;;;;;;;15.75;7.82;;;12.00;99.90;;;;;;5018107;28;20041;-72
2023/05/10 05:08:50;;;;;;;17.00;8.45;;;12.00;99.90;;;;;;5015275;28;20124;-74
2023/05/10 05:11:17;;;;;;;13.13;7.32;;;12.00;99.90;;;;;;5019326;28;20175;-74
2023/05/10 05:13:43;;;;;;;16.90;8.13;;;12.00;99.90;;;;;;5020615;28;20049;-71
2023/05/10 05:16:08;;;;;;;15.88;8.50;;;12.00;99.90;;;;;;5023825;28;20049;-72
2023/05/10 05:18:34;;;;;;;17.98;8.85;;;12.10;99.90;;;;;;5030288;28;20127;-74
2023/05/10 05:21:00;;;;;;;16.70;7.53;;;12.00;99.90;;;;;;5018038;28;20073;-73
2023/05/10 05:23:26;;;;;;;14.45;7.13;;;12.10;99.90;;;;;;5015300;28;20052;-75
2023/05/10 05:25:53;;;;;;;13.45;7.90;;;12.10;99.90;;;;;;5020442;28;20490;-74
2023/05/10 05:28:22;;;;;;;11.52;7.25;;;12.10;99.90;;;;;;5015898;28;20537;-77
2023/05/10 05:30:48;;;;;;;13.07;7.23;;;12.10;99.90;;;;;;5001498;28;20049;-74
2023/05/10 05:33:15;;;;;;;11.10;6.78;;;12.00;99.90;;;;;;5020676;28;20359;-73
2023/05/10 05:35:41;;;;;;;11.95;6.15;;;12.10;99.90;;;;;;5010695;28;20163;-74
2023/05/10 05:38:06;;;;;;;11.23;6.40;;;12.00;99.90;;;;;;5019071;28;20460;-73
2023/05/10 05:40:32;;;;;;;12.40;6.57;;;12.00;99.90;;;;;;4996493;28;20572;-73
2023/05/10 05:42:57;;;;;;;12.00;6.68;;;12.00;99.90;;;;;;5014006;28;20050;-75
2023/05/10 05:45:23;;;;;;;10.88;6.35;;;12.00;99.90;;;;;;5012509;28;20445;-74
2023/05/10 05:47:49;;;;;;;10.43;5.57;;;12.10;99.90;;;;;;5016081;28;20042;-73
2023/05/10 05:50:14;;;;;;;9.70;6.38;;;12.00;99.90;;;;;;5012028;28;20099;-73
2023/05/10 05:52:40;;;;;;;10.23;6.38;;;12.00;99.90;;;;;;5002580;28;20026;-75
2023/05/10 05:55:06;;;;;;;10.82;5.68;;;12.10;99.90;;;;;;5002833;28;20112;-73
2023/05/10 05:57:31;;;;;;;10.18;6.00;;;12.10;99.90;;;;;;5012330;28;20117;-74
2023/05/10 05:59:57;;;;;;;11.75;6.15;;;12.00;99.90;;;;;;4994986;28;20866;-73
2023/05/10 06:02:22;;;;;;;9.60;5.40;;;12.00;99.90;;;;;;5029692;28;20052;-72
2023/05/10 06:04:48;;;;;;;11.52;5.20;;;12.00;99.90;;;;;;5023223;28;20136;-75
2023/05/10 06:07:13;;;;;;;11.75;5.95;;;12.00;99.90;;;;;;5015715;28;20034;-74
2023/05/10 06:09:39;;;;;;;9.82;6.18;;;12.00;99.90;;;;;;5011335;28;20068;-72
2023/05/10 06:12:05;;;;;;;9.50;5.47;;;12.00;99.90;;;;;;5010308;28;20400;-71
2023/05/10 06:14:30;;;;;;;12.75;6.15;;;12.00;99.90;;;;;;4997636;28;20036;-73
2023/05/10 06:16:56;;;;;;;7.43;5.38;;;12.00;99.90;;;;;;5029697;28;20036;-74
2023/05/10 06:19:21;;;;;;;9.25;5.70;;;12.10;99.90;;;;;;5009794;28;20400;-75
2023/05/10 06:21:47;;;;;;;11.93;5.45;;;12.10;99.90;;;;;;5011417;28;20034;-73
2023/05/10 06:24:12;;;;;;;6.88;5.10;;;12.10;99.90;;;;;;4994630;28;20034;-75
2023/05/10 06:26:38;;;;;;;7.70;4.97;;;12.00;99.90;;;;;;5020160;28;20500;-73
2023/05/10 06:29:04;;;;;;;8.38;5.28;;;12.10;99.90;;;;;;5024744;28;20092;-72
2023/05/10 06:31:29;;;;;;;8.45;4.50;;;12.10;99.90;;;;;;5021353;28;20045;-72
2023/05/10 06:33:55;;;;;;;6.55;4.45;;;12.10;99.90;;;;;;5009255;28;20041;-72
2023/05/10 06:36:21;;;;;;;6.28;4.28;;;12.10;99.90;;;;;;5040454;28;20052;-72
2023/05/10 06:38:47;;;;;;;5.07;4.15;;;12.10;99.90;;;;;;5022105;28;20129;-74
2023/05/10 06:41:13;;;;;;;9.32;4.93;;;12.10;99.90;;;;;;5001128;28;20132;-72
2023/05/10 06:43:41;;;;;;;6.85;4.43;;;12.10;99.90;;;;;;5018684;28;20049;-74
2023/05/10 06:46:07;;;;;;;8.43;5.32;;;12.10;99.90;;;;;;5010079;28;20443;-71
2023/05/10 06:48:32;;;;;;;6.85;4.45;;;12.20;99.90;;;;;;5016739;28;20037;-73
2023/05/10 06:50:58;;;;;;;6.60;4.20;;;12.10;99.90;;;;;;5014579;28;20033;-73
2023/05/10 06:53:23;;;;;;;6.47;3.88;;;12.20;99.90;;;;;;5029052;28;20044;-72
2023/05/10 06:55:49;;;;;;;4.78;3.67;;;12.20;99.90;;;;;;5023528;28;20053;-72
2023/05/10 06:58:15;;;;;;;5.03;3.20;;;12.20;99.90;;;;;;5015400;28;20041;-75
2023/05/10 07:00:43;;;;;;;5.15;4.13;;;12.20;99.90;;;;;;5007116;28;20069;-73
2023/05/10 07:03:11;;;;;;;5.50;3.75;;;12.20;99.90;;;;;;5007844;28;20057;-73
2023/05/10 07:05:37;;;;;;;5.95;3.60;;;12.30;99.90;;;;;;5017397;28;20042;-73
2023/05/10 07:08:03;;;;;;;5.32;3.22;;;12.30;99.90;;;;;;5009421;28;20034;-73
2023/05/10 07:10:29;;;;;;;4.15;2.33;;;12.30;99.90;;;;;;4993964;28;20068;-73
2023/05/10 07:12:55;;;;;;;2.42;1.95;;;12.40;99.90;;;;;;5018138;28;20500;-72
2023/05/10 07:15:20;;;;;;;2.53;1.77;;;12.40;99.90;;;;;;5016147;28;20041;-73
2023/05/10 07:17:46;;;;;;;2.40;1.40;;;12.50;99.90;;;;;;5017209;28;20045;-72
2023/05/10 07:20:12;;;;;;;1.58;1.35;;;12.70;99.90;;;;;;5007086;28;20386;-77
2023/05/10 07:22:37;;;;;;;0.98;0.80;;;12.60;99.90;;;;;;4994252;28;20077;-73
2023/05/10 07:25:03;;;;;;;3.63;0.93;;;12.70;99.90;;;;;;5026759;28;20043;-72
2023/05/10 07:27:30;;;;;;;0.95;0.80;;;12.60;99.90;;;;;;5007621;28;20483;-74
2023/05/10 07:29:56;;;;;;;0.80;0.70;;;12.70;99.90;;;;;;5020118;28;20037;-73
2023/05/10 07:32:22;;;;;;;1.02;0.55;;;12.80;99.90;;;;;;5011616;28;20061;-73
2023/05/10 07:34:47;;;;;;;1.38;0.50;;;13.00;99.90;;;;;;4991780;28;20050;-70
2023/05/10 07:37:13;;;;;;;0.70;0.50;;;12.90;99.90;;;;;;5009702;28;20053;-74
2023/05/10 07:39:38;;;;;;;0.45;0.45;;;12.90;99.90;;;;;;5008171;28;20048;-77
2023/05/10 07:42:04;;;;;;;0.63;0.40;;;12.80;99.90;;;;;;4993436;28;20087;-77
2023/05/10 07:44:29;;;;;;;0.40;0.20;;;12.90;99.90;;;;;;4989857;28;20058;-74
2023/05/10 07:46:55;;;;;;;0.30;0.30;;;12.90;99.90;;;;;;4992324;28;20039;-75
2023/05/10 07:49:21;;;;;;;0.40;0.30;;;13.00;99.90;;;;;;4973028;28;20052;-74
2023/05/10 07:51:47;;;;;;;1.10;0.30;;;13.00;99.90;;;;;;5002931;28;20034;-74
2023/05/10 07:54:14;;;;;;;0.75;0.30;;;13.00;99.90;;;;;;5019399;28;20145;-76
2023/05/10 07:56:45;;;;;;;0.57;0.20;;;13.10;99.90;;;;;;5009752;28;20041;-76
2023/05/10 07:59:15;;;;;;;2.25;0.40;;;13.20;99.90;;;;;;5005716;28;20050;-75
2023/05/10 08:01:41;;;;;;;0.30;0.30;;;13.20;99.90;;;;;;4993934;28;20105;-75
2023/05/10 08:04:07;;;;;;;0.30;0.30;;;13.20;99.90;;;;;;4999517;28;20053;-73
2023/05/10 08:06:32;;;;;;;0.60;0.30;;;13.40;99.90;;;;;;4990212;28;20482;-74
2023/05/10 08:08:58;;;;;;;0.38;0.38;;;13.40;99.90;;;;;;5001075;28;20041;-72
2023/05/10 08:11:24;;;;;;;0.60;0.50;;;13.40;99.90;;;;;;4991710;28;20176;-71
2023/05/10 08:13:50;;;;;;;0.93;0.43;;;13.30;99.90;;;;;;4991805;28;20034;-76
2023/05/10 08:16:16;;;;;;;0.85;0.40;;;13.30;99.90;;;;;;4991884;28;20074;-71
2023/05/10 08:18:44;;;;;;;2.75;0.77;;;13.20;99.90;;;;;;4999157;28;20516;-73
2023/05/10 08:21:11;;;;;;;0.77;0.57;;;13.20;99.90;;;;;;5005808;28;20131;-73
2023/05/10 08:23:37;;;;;;;1.20;0.68;;;13.20;99.90;;;;;;5005559;28;20050;-73
2023/05/10 08:26:02;;;;;;;0.75;0.60;;;13.30;99.90;;;;;;4994246;28;20144;-74
2023/05/10 08:28:28;;;;;;;0.82;0.80;;;13.30;99.90;;;;;;5009512;28;20069;-69
2023/05/10 08:30:54;;;;;;;1.13;1.00;;;13.30;99.90;;;;;;5009776;28;20045;-74
2023/05/10 08:33:19;;;;;;;1.88;1.40;;;13.40;99.90;;;;;;5010962;28;20073;-72
2023/05/10 08:35:45;;;;;;;3.90;1.70;;;13.50;99.90;;;;;;4999738;28;20073;-77
2023/05/10 08:38:11;;;;;;;4.35;1.80;;;13.60;99.90;;;;;;4997270;28;20382;-75
2023/05/10 08:40:43;;;;;;;3.08;1.65;;;13.70;99.90;;;;;;4999545;28;20049;-76
2023/05/10 08:43:11;;;;;;;3.08;2.20;;;13.80;99.90;;;;;;5042650;28;20107;-73
2023/05/10 08:45:39;;;;;;;2.50;2.28;;;13.90;99.90;;;;;;5016571;28;20048;-75
2023/05/10 08:48:09;;;;;;;3.53;2.60;;;13.90;99.90;;;;;;5011454;28;20402;-72
2023/05/10 08:50:35;;;;;;;;;;;13.90;99.90;;;;;;5021237;28;20037;-75
2023/05/10 08:53:04;;;;;;;2.55;2.15;;;13.90;99.90;;;;;;5028591;28;20300;-74
2023/05/10 08:55:32;;;;;;;3.95;1.83;;;13.90;99.90;;;;;;5032041;28;20096;-72
2023/05/10 08:57:58;;;;;;;4.43;1.83;;;13.80;99.90;;;;;;5032431;28;20057;-74
2023/05/10 09:00:25;;;;;;;2.03;1.60;;;13.80;99.90;;;;;;5025074;28;20060;-73
2023/05/10 09:02:51;;;;;;;3.67;1.95;;;13.90;99.90;;;;;;5022768;28;20091;-71
2023/05/10 09:05:17;;;;;;;4.30;2.20;;;14.10;99.90;;;;;;5027079;28;20033;-74
2023/05/10 09:07:43;;;;;;;2.95;1.90;;;14.20;99.90;;;;;;5016593;28;20042;-72
2023/05/10 09:10:10;;;;;;;3.42;2.40;;;14.30;99.90;;;;;;5023977;28;20034;-73
2023/05/10 09:12:36;;;;;;;4.80;2.38;;;14.50;99.90;;;;;;5028298;28;20045;-75
2023/05/10 09:15:03;;;;;;;4.07;2.35;;;14.40;99.90;;;;;;5024304;28;20049;-73
2023/05/10 09:17:30;;;;;;;7.78;2.60;;;14.30;99.90;;;;;;5016991;28;20073;-70
2023/05/10 09:20:06;;;;;;;3.05;2.00;;;14.20;99.90;;;;;;4990286;28;20076;-73
2023/05/10 09:22:31;;;;;;;2.45;2.00;;;14.10;99.90;;;;;;5018547;28;20049;-72
2023/05/10 09:25:14;;;;;;;2.92;2.20;;;14.00;99.90;;;;;;5017789;28;20060;-74
2023/05/10 09:27:41;;;;;;;3.92;2.17;;;13.90;99.90;;;;;;5032123;28;20075;-72
2023/05/10 09:30:07;;;;;;;2.80;2.33;;;13.80;99.90;;;;;;5020749;28;20042;-72
2023/05/10 09:32:47;;;;;;;2.63;2.42;;;13.80;99.90;;;;;;5019513;28;20053;-73
2023/05/10 09:35:16;;;;;;;3.17;2.70;;;13.80;99.90;;;;;;5018362;28;20124;-72
2023/05/10 09:37:43;;;;;;;3.03;2.70;;;13.80;99.90;;;;;;5024754;28;20107;-72
2023/05/10 09:40:15;;;;;;;3.92;3.05;;;13.90;99.90;;;;;;5018453;28;20058;-72
2023/05/10 09:42:42;;;;;;;5.40;2.60;;;14.00;99.90;;;;;;5012707;28;20426;-73
2023/05/10 09:45:08;;;;;;;3.72;2.70;;;14.20;99.90;;;;;;5014041;28;20099;-74
2023/05/10 09:47:35;;;;;;;3.08;2.78;;;14.30;99.90;;;;;;5017454;28;20033;-74
2023/05/10 09:50:04;;;;;;;2.92;2.45;;;14.40;99.90;;;;;;5023076;28;20046;-74
2023/05/10 09:52:45;;;;;;;3.27;2.57;;;14.50;99.90;;;;;;5014447;28;20061;-73
2023/05/10 09:55:10;;;;;;;3.20;2.58;;;14.40;99.90;;;;;;5019654;28;20049;-73
2023/05/10 09:57:36;;;;;;;3.45;2.15;;;14.20;99.90;;;;;;5029436;28;20094;-72
2023/05/10 10:00:04;;;;;;;4.38;2.30;;;14.20;99.90;;;;;;5028480;28;20041;-74
2023/05/10 10:02:31;;;;;;;3.30;2.20;;;14.00;99.90;;;;;;5003353;28;20545;-76
2023/05/10 10:04:56;;;;;;;2.67;1.95;;;13.90;99.90;;;;;;5009972;28;20056;-72
2023/05/10 10:07:24;;;;;;;2.50;2.10;;;13.80;99.90;;;;;;5020237;28;20623;-73
2023/05/10 10:09:50;;;;;;;2.72;2.03;;;13.90;99.90;;;;;;5025053;28;20037;-73
2023/05/10 10:12:16;;;;;;;3.85;2.08;;;13.80;99.90;;;;;;5024106;28;20504;-75
2023/05/10 10:14:42;;;;;;;3.88;1.90;;;13.80;99.90;;;;;;5018154;28;20486;-75
2023/05/10 10:17:08;;;;;;;3.30;2.10;;;13.80;99.90;;;;;;5020663;28;20045;-75
2023/05/10 10:19:35;;;;;;;3.30;2.58;;;13.90;99.90;;;;;;5024668;28;20417;-74
2023/05/10 10:22:00;;;;;;;4.45;3.08;;;13.80;99.90;;;;;;5026204;28;20045;-72
2023/05/10 10:24:26;;;;;;;5.50;3.50;;;13.80;99.90;;;;;;5020901;28;20048;-75
2023/05/10 10:26:57;;;;;;;5.65;3.67;;;13.90;99.90;;;;;;5009394;28;20037;-76
2023/05/10 10:29:36;;;;;;;4.35;3.53;;;14.10;99.90;;;;;;5029812;28;20069;-75
2023/05/10 10:32:17;;;;;;;4.20;3.10;;;14.40;99.90;;;;;;5028803;28;20029;-73
2023/05/10 10:34:44;;;;;;;6.03;3.67;;;14.70;99.90;;;;;;5026683;28;20292;-73
2023/05/10 10:37:10;;;;;;;7.15;3.25;;;14.80;99.90;;;;;;5025581;28;20037;-72
2023/05/10 10:39:36;;;;;;;5.13;3.75;;;14.50;99.90;;;;;;5012075;28;20126;-72
2023/05/10 10:42:03;;;;;;;5.72;3.88;;;14.20;99.90;;;;;;5016538;28;20058;-69
2023/05/10 10:44:33;;;;;;;5.75;4.28;;;14.00;99.90;;;;;;5014509;28;20046;-73
2023/05/10 10:47:11;;;;;;;6.22;4.15;;;13.80;99.90;;;;;;5022023;28;20087;-75
2023/05/10 10:49:40;;;;;;;6.15;4.57;;;13.80;99.90;;;;;;5029574;28;20519;-76
2023/05/10 10:52:23;;;;;;;5.22;3.85;;;13.70;99.90;;;;;;5020771;28;20521;-74
2023/05/10 10:55:24;;;;;;;6.35;4.78;;;13.60;99.90;;;;;;5011486;28;20045;-74
2023/05/10 10:58:00;;;;;;;7.88;5.13;;;13.60;99.90;;;;;;5001520;28;20038;-75
2023/05/10 11:00:40;;;;;;;7.18;4.63;;;13.70;99.90;;;;;;5020981;28;20053;-75
2023/05/10 11:03:18;;;;;;;6.13;4.38;;;13.80;99.90;;;;;;5018302;28;20472;-73
2023/05/10 11:05:47;;;;;;;7.20;4.63;;;13.90;99.90;;;;;;5017947;28;20054;-70
2023/05/10 11:08:30;;;;;;;7.50;5.30;;;13.90;99.90;;;;;;5020333;28;20063;-77
2023/05/10 11:10:58;;;;;;;7.13;4.85;;;13.90;99.90;;;;;;5013695;28;20056;-73
2023/05/10 11:13:30;;;;;;;10.18;5.10;;;13.90;99.90;;;;;;5003219;28;20041;-73
2023/05/10 11:15:59;;;;;;;7.55;5.07;;;13.90;99.90;;;;;;5003977;28;20037;-72
2023/05/10 11:18:29;;;;;;;9.43;4.40;;;14.10;99.90;;;;;;5018959;28;20044;-75
2023/05/10 11:21:05;;;;;;;8.25;4.75;;;14.10;99.90;;;;;;5021157;28;20041;-75
2023/05/10 11:23:52;;;;;;;8.73;5.50;;;14.20;99.90;;;;;;5020484;28;20037;-74
2023/05/10 11:26:18;;;;;;;7.70;4.78;;;14.20;99.90;;;;;;5010618;28;20042;-74
2023/05/10 11:28:48;;;;;;;7.65;5.20;;;14.30;99.90;;;;;;4998299;28;20037;-74
2023/05/10 11:31:18;;;;;;;7.93;5.45;;;14.20;99.90;;;;;;5009775;28;20426;-73
2023/05/10 11:33:49;;;;;;;9.88;5.57;;;14.30;99.90;;;;;;5009541;28;20501;-73
2023/05/10 11:36:17;;;;;;;8.02;5.55;;;14.50;99.90;;;;;;5009284;28;20057;-71
2023/05/10 11:38:43;;;;;;;9.75;4.93;;;14.60;99.90;;;;;;5024307;28;20089;-73
2023/05/10 11:41:12;;;;;;;7.38;5.03;;;14.60;99.90;;;;;;5024416;28;20532;-76
2023/05/10 11:43:41;;;;;;;7.20;4.90;;;14.70;99.90;;;;;;5028201;28;20120;-73
2023/05/10 11:46:10;;;;;;;7.05;4.95;;;14.70;99.90;;;;;;5020281;28;20506;-73
2023/05/10 11:48:36;;;;;;;7.10;4.65;;;14.60;99.90;;;;;;4998830;28;20034;-73
2023/05/10 11:51:02;;;;;;;8.65;4.70;;;14.60;99.90;;;;;;5016685;28;20034;-73
2023/05/10 11:53:31;;;;;;;6.65;4.80;;;14.50;99.90;;;;;;4992954;28;20120;-73
2023/05/10 11:56:06;;;;;;;7.55;4.80;;;14.50;99.90;;;;;;5029033;28;20048;-73
2023/05/10 11:58:33;;;;;;;8.23;4.50;;;14.40;99.90;;;;;;5022971;28;20458;-76
2023/05/10 12:01:02;;;;;;;7.18;4.18;;;14.40;99.90;;;;;;5028327;28;20037;-75
2023/05/10 12:03:29;;;;;;;7.30;4.70;;;14.40;99.90;;;;;;5027888;28;20045;-78
2023/05/10 12:05:55;;;;;;;7.82;4.55;;;14.40;99.90;;;;;;5019400;28;20032;-74
2023/05/10 12:08:26;;;;;;;8.10;4.60;;;14.40;99.90;;;;;;5024562;28;20048;-74
2023/05/10 12:10:52;;;;;;;;;;;14.40;99.90;;;;;;5010450;28;20493;-76
2023/05/10 12:13:18;;;;;;;6.80;3.92;;;14.50;99.90;;;;;;5020550;28;19917;-75
2023/05/10 12:15:44;;;;;;;6.40;4.57;;;14.50;99.90;;;;;;5027059;28;20045;-76
2023/05/10 12:18:11;;;;;;;8.73;4.75;;;14.40;99.90;;;;;;5010914;28;20099;-75
2023/05/10 12:20:37;;;;;;;11.25;4.97;;;14.40;99.90;;;;;;5020193;28;20375;-75
2023/05/10 12:23:03;;;;;;;9.32;5.18;;;14.30;99.90;;;;;;5021134;28;20401;-76
2023/05/10 12:25:37;;;;;;;8.57;4.80;;;14.30;99.90;;;;;;5002833;28;20045;-80
2023/05/10 12:28:05;;;;;;;7.60;4.47;;;14.20;99.90;;;;;;5024583;28;20033;-74
2023/05/10 12:30:32;;;;;;;7.95;4.50;;;13.90;99.90;;;;;;5008071;28;20064;-82
2023/05/10 12:33:12;;;;;;;7.22;5.05;;;13.80;99.90;;;;;;5029596;28;20041;-79
2023/05/10 12:35:53;;;;;;;10.45;4.47;;;13.80;99.90;;;;;;4999685;28;20073;-73
2023/05/10 12:38:29;;;;;;;5.97;4.35;;;13.80;99.90;;;;;;5033835;28;20057;-77
2023/05/10 12:41:00;;;;;;;7.18;4.93;;;13.90;99.90;;;;;;5023138;28;20593;-75
2023/05/10 12:43:25;;;;;;;7.80;4.35;;;13.90;99.90;;;;;;5020691;28;20156;-77
2023/05/10 12:45:51;;;;;;;8.02;4.80;;;14.00;99.90;;;;;;5026611;28;20124;-80